sensor_id;sensor_type;location;lat;lon;timestamp;pressure;altitude;pressure_sealevel;temperature;humidity
27146;BME280;17980;51.744;7.190;2022-08-19T00:00:41;100854.66;;;23.18;89.53
27146;BME280;17980;51.744;7.190;2022-08-19T00:03:09;100865.13;;;23.07;91.03
27146;BME280;17980;51.744;7.190;2022-08-19T00:08:13;100859.25;;;22.97;92.99
27146;BME280;17980;51.744;7.190;2022-08-19T00:10:40;100854.27;;;22.80;93.39
27146;BME280;17980;51.744;7.190;2022-08-19T00:15:49;100852.12;;;22.82;94.33
27146;BME280;17980;51.744;7.190;2022-08-19T00:18:16;100860.23;;;22.84;93.91
27146;BME280;17980;51.744;7.190;2022-08-19T00:23:20;100861.78;;;22.64;94.13
27146;BME280;17980;51.744;7.190;2022-08-19T00:25:47;100859.78;;;22.62;93.33
27146;BME280;17980;51.744;7.190;2022-08-19T00:28:15;100864.14;;;22.51;95.04
27146;BME280;17980;51.744;7.190;2022-08-19T00:30:42;100863.54;;;22.83;93.61
27146;BME280;17980;51.744;7.190;2022-08-19T00:33:10;100863.72;;;22.89;91.86
27146;BME280;17980;51.744;7.190;2022-08-19T00:35:37;100862.11;;;22.65;92.69
27146;BME280;17980;51.744;7.190;2022-08-19T00:38:05;100864.53;;;23.05;90.54
27146;BME280;17980;51.744;7.190;2022-08-19T00:40:33;100865.20;;;22.66;91.99
27146;BME280;17980;51.744;7.190;2022-08-19T00:45:39;100853.15;;;22.63;93.04
27146;BME280;17980;51.744;7.190;2022-08-19T00:48:08;100855.14;;;22.56;92.39
27146;BME280;17980;51.744;7.190;2022-08-19T00:50:36;100853.72;;;22.81;91.51
27146;BME280;17980;51.744;7.190;2022-08-19T00:53:07;100851.20;;;22.89;90.46
27146;BME280;17980;51.744;7.190;2022-08-19T00:55:37;100852.42;;;22.58;91.98
27146;BME280;17980;51.744;7.190;2022-08-19T01:00:45;100854.98;;;22.34;93.95
27146;BME280;17980;51.744;7.190;2022-08-19T01:05:54;100847.91;;;22.73;91.22
27146;BME280;17980;51.744;7.190;2022-08-19T01:08:23;100848.83;;;22.26;93.69
27146;BME280;17980;51.744;7.190;2022-08-19T01:10:52;100849.21;;;22.61;91.93
27146;BME280;17980;51.744;7.190;2022-08-19T01:13:25;100847.34;;;22.39;93.27
27146;BME280;17980;51.744;7.190;2022-08-19T01:15:53;100843.14;;;22.80;91.35
27146;BME280;17980;51.744;7.190;2022-08-19T01:18:22;100839.00;;;22.90;90.30
27146;BME280;17980;51.744;7.190;2022-08-19T01:21:00;100840.21;;;22.84;89.58
27146;BME280;17980;51.744;7.190;2022-08-19T01:23:28;100838.41;;;22.81;89.72
27146;BME280;17980;51.744;7.190;2022-08-19T01:26:13;100834.75;;;22.62;91.10
27146;BME280;17980;51.744;7.190;2022-08-19T01:28:42;100840.17;;;22.66;90.78
27146;BME280;17980;51.744;7.190;2022-08-19T01:33:51;100847.13;;;22.66;90.98
27146;BME280;17980;51.744;7.190;2022-08-19T01:36:27;100855.20;;;22.58;90.98
27146;BME280;17980;51.744;7.190;2022-08-19T01:38:55;100857.51;;;22.52;90.76
27146;BME280;17980;51.744;7.190;2022-08-19T01:41:22;100858.62;;;22.60;90.83
27146;BME280;17980;51.744;7.190;2022-08-19T01:43:52;100856.76;;;22.89;89.65
27146;BME280;17980;51.744;7.190;2022-08-19T01:46:21;100855.75;;;22.58;90.55
27146;BME280;17980;51.744;7.190;2022-08-19T01:48:49;100857.42;;;22.49;90.83
27146;BME280;17980;51.744;7.190;2022-08-19T01:53:53;100853.28;;;22.27;92.39
27146;BME280;17980;51.744;7.190;2022-08-19T01:56:21;100848.92;;;22.44;91.43
27146;BME280;17980;51.744;7.190;2022-08-19T01:58:54;100846.58;;;22.09;92.67
27146;BME280;17980;51.744;7.190;2022-08-19T02:01:26;100846.90;;;22.10;92.92
27146;BME280;17980;51.744;7.190;2022-08-19T02:03:53;100852.16;;;21.87;94.14
27146;BME280;17980;51.744;7.190;2022-08-19T02:06:21;100855.16;;;21.85;94.38
27146;BME280;17980;51.744;7.190;2022-08-19T02:08:48;100848.70;;;21.75;94.88
27146;BME280;17980;51.744;7.190;2022-08-19T02:11:21;100850.66;;;21.68;95.81
27146;BME280;17980;51.744;7.190;2022-08-19T02:13:48;100856.46;;;21.60;96.28
27146;BME280;17980;51.744;7.190;2022-08-19T02:16:17;100851.63;;;21.64;96.20
27146;BME280;17980;51.744;7.190;2022-08-19T02:18:49;100849.16;;;21.88;95.68
27146;BME280;17980;51.744;7.190;2022-08-19T02:23:53;100837.75;;;22.03;94.22
27146;BME280;17980;51.744;7.190;2022-08-19T02:26:21;100832.81;;;21.89;94.63
27146;BME280;17980;51.744;7.190;2022-08-19T02:28:49;100834.45;;;21.65;96.58
27146;BME280;17980;51.744;7.190;2022-08-19T02:31:20;100831.98;;;21.30;97.79
27146;BME280;17980;51.744;7.190;2022-08-19T02:33:48;100835.12;;;21.47;99.05
27146;BME280;17980;51.744;7.190;2022-08-19T02:36:18;100846.73;;;21.82;95.03
27146;BME280;17980;51.744;7.190;2022-08-19T02:38:45;100848.02;;;21.80;95.29
27146;BME280;17980;51.744;7.190;2022-08-19T02:43:51;100850.29;;;22.12;92.95
27146;BME280;17980;51.744;7.190;2022-08-19T02:46:20;100846.80;;;22.08;93.34
27146;BME280;17980;51.744;7.190;2022-08-19T02:48:48;100861.60;;;22.01;93.55
27146;BME280;17980;51.744;7.190;2022-08-19T02:51:17;100857.62;;;21.84;95.15
27146;BME280;17980;51.744;7.190;2022-08-19T02:53:46;100861.61;;;21.49;96.69
27146;BME280;17980;51.744;7.190;2022-08-19T02:56:13;100855.83;;;21.51;96.97
27146;BME280;17980;51.744;7.190;2022-08-19T02:58:41;100844.63;;;21.55;97.18
27146;BME280;17980;51.744;7.190;2022-08-19T03:01:10;100850.77;;;21.87;95.61
27146;BME280;17980;51.744;7.190;2022-08-19T03:03:37;100847.99;;;21.87;95.77
27146;BME280;17980;51.744;7.190;2022-08-19T03:06:08;100838.41;;;21.60;96.50
27146;BME280;17980;51.744;7.190;2022-08-19T03:08:36;100839.72;;;21.50;97.30
27146;BME280;17980;51.744;7.190;2022-08-19T03:11:04;100834.05;;;21.55;97.24
27146;BME280;17980;51.744;7.190;2022-08-19T03:13:32;100833.20;;;21.54;97.28
27146;BME280;17980;51.744;7.190;2022-08-19T03:15:59;100833.10;;;21.52;97.16
27146;BME280;17980;51.744;7.190;2022-08-19T03:21:05;100833.39;;;21.23;99.89
27146;BME280;17980;51.744;7.190;2022-08-19T03:26:09;100835.12;;;21.47;98.98
27146;BME280;17980;51.744;7.190;2022-08-19T03:28:36;100846.66;;;21.14;100.00
27146;BME280;17980;51.744;7.190;2022-08-19T03:33:43;100840.98;;;21.25;100.00
27146;BME280;17980;51.744;7.190;2022-08-19T03:36:13;100838.31;;;21.57;99.28
27146;BME280;17980;51.744;7.190;2022-08-19T03:38:43;100839.84;;;21.46;99.05
27146;BME280;17980;51.744;7.190;2022-08-19T03:41:13;100842.81;;;21.52;98.46
27146;BME280;17980;51.744;7.190;2022-08-19T03:43:42;100838.86;;;21.57;98.80
27146;BME280;17980;51.744;7.190;2022-08-19T03:46:13;100826.67;;;21.51;99.79
27146;BME280;17980;51.744;7.190;2022-08-19T03:48:42;100821.51;;;21.32;99.93
27146;BME280;17980;51.744;7.190;2022-08-19T03:51:18;100826.78;;;21.24;100.00
27146;BME280;17980;51.744;7.190;2022-08-19T03:53:46;100830.72;;;21.26;99.85
27146;BME280;17980;51.744;7.190;2022-08-19T03:56:15;100840.76;;;21.27;100.00
27146;BME280;17980;51.744;7.190;2022-08-19T03:58:45;100843.02;;;21.57;97.84
27146;BME280;17980;51.744;7.190;2022-08-19T04:01:17;100849.09;;;21.27;99.96
27146;BME280;17980;51.744;7.190;2022-08-19T04:03:45;100844.53;;;21.53;99.02
27146;BME280;17980;51.744;7.190;2022-08-19T04:06:15;100850.53;;;21.72;97.07
27146;BME280;17980;51.744;7.190;2022-08-19T04:11:22;100851.19;;;21.38;99.22
27146;BME280;17980;51.744;7.190;2022-08-19T04:13:50;100850.41;;;21.40;98.77
27146;BME280;17980;51.744;7.190;2022-08-19T04:16:19;100849.48;;;21.30;99.28
27146;BME280;17980;51.744;7.190;2022-08-19T04:18:47;100847.53;;;21.38;98.74
27146;BME280;17980;51.744;7.190;2022-08-19T04:21:18;100848.58;;;21.43;98.13
27146;BME280;17980;51.744;7.190;2022-08-19T04:23:45;100850.86;;;21.73;97.53
27146;BME280;17980;51.744;7.190;2022-08-19T04:26:13;100846.86;;;21.78;96.32
27146;BME280;17980;51.744;7.190;2022-08-19T04:28:42;100842.80;;;21.97;95.08
27146;BME280;17980;51.744;7.190;2022-08-19T04:31:14;100839.05;;;22.00;94.48
27146;BME280;17980;51.744;7.190;2022-08-19T04:33:42;100845.89;;;22.14;93.24
27146;BME280;17980;51.744;7.190;2022-08-19T04:38:55;100853.13;;;21.83;95.10
27146;BME280;17980;51.744;7.190;2022-08-19T04:41:23;100853.27;;;21.49;96.80
27146;BME280;17980;51.744;7.190;2022-08-19T04:44:08;100850.37;;;21.18;98.96
27146;BME280;17980;51.744;7.190;2022-08-19T04:46:36;100837.88;;;21.24;99.88
27146;BME280;17980;51.744;7.190;2022-08-19T04:49:05;100846.13;;;21.44;97.68
27146;BME280;17980;51.744;7.190;2022-08-19T04:54:11;100846.69;;;21.73;96.84
27146;BME280;17980;51.744;7.190;2022-08-19T04:56:40;100850.92;;;21.53;97.21
27146;BME280;17980;51.744;7.190;2022-08-19T04:59:07;100858.55;;;21.71;96.42
27146;BME280;17980;51.744;7.190;2022-08-19T05:01:35;100861.52;;;21.76;96.05
27146;BME280;17980;51.744;7.190;2022-08-19T05:04:05;100863.36;;;21.73;95.24
27146;BME280;17980;51.744;7.190;2022-08-19T05:06:33;100861.31;;;21.71;96.11
27146;BME280;17980;51.744;7.190;2022-08-19T05:09:02;100859.08;;;22.09;94.30
27146;BME280;17980;51.744;7.190;2022-08-19T05:11:31;100865.02;;;21.81;95.49
27146;BME280;17980;51.744;7.190;2022-08-19T05:14:00;100865.70;;;22.08;94.08
27146;BME280;17980;51.744;7.190;2022-08-19T05:16:28;100872.93;;;22.32;92.63
27146;BME280;17980;51.744;7.190;2022-08-19T05:18:55;100870.32;;;22.21;92.50
27146;BME280;17980;51.744;7.190;2022-08-19T05:21:42;100876.69;;;21.96;94.54
27146;BME280;17980;51.744;7.190;2022-08-19T05:24:28;100873.12;;;21.82;95.75
27146;BME280;17980;51.744;7.190;2022-08-19T05:26:56;100875.61;;;22.36;93.54
27146;BME280;17980;51.744;7.190;2022-08-19T05:29:25;100877.87;;;22.30;94.23
27146;BME280;17980;51.744;7.190;2022-08-19T05:31:54;100872.22;;;22.27;93.37
27146;BME280;17980;51.744;7.190;2022-08-19T05:34:22;100878.75;;;22.24;93.40
27146;BME280;17980;51.744;7.190;2022-08-19T05:36:54;100877.94;;;22.32;93.08
27146;BME280;17980;51.744;7.190;2022-08-19T05:39:25;100880.83;;;22.51;91.90
27146;BME280;17980;51.744;7.190;2022-08-19T05:44:33;100872.61;;;22.31;92.99
27146;BME280;17980;51.744;7.190;2022-08-19T05:47:03;100874.22;;;22.29;93.02
27146;BME280;17980;51.744;7.190;2022-08-19T05:49:32;100886.30;;;22.64;91.54
27146;BME280;17980;51.744;7.190;2022-08-19T05:52:03;100888.44;;;22.62;91.65
27146;BME280;17980;51.744;7.190;2022-08-19T05:54:33;100890.94;;;22.70;91.09
27146;BME280;17980;51.744;7.190;2022-08-19T05:57:01;100879.44;;;22.67;91.73
27146;BME280;17980;51.744;7.190;2022-08-19T05:59:29;100882.53;;;22.52;92.10
27146;BME280;17980;51.744;7.190;2022-08-19T06:02:02;100885.20;;;22.40;92.99
27146;BME280;17980;51.744;7.190;2022-08-19T06:04:30;100890.15;;;22.98;91.05
27146;BME280;17980;51.744;7.190;2022-08-19T06:09:37;100888.31;;;22.41;93.42
27146;BME280;17980;51.744;7.190;2022-08-19T06:12:06;100882.88;;;22.87;91.71
27146;BME280;17980;51.744;7.190;2022-08-19T06:14:36;100885.59;;;23.19;89.98
27146;BME280;17980;51.744;7.190;2022-08-19T06:17:03;100880.48;;;23.44;89.27
27146;BME280;17980;51.744;7.190;2022-08-19T06:22:11;100879.22;;;23.86;88.28
27146;BME280;17980;51.744;7.190;2022-08-19T06:24:39;100879.61;;;23.81;88.41
27146;BME280;17980;51.744;7.190;2022-08-19T06:27:07;100871.93;;;23.85;88.72
27146;BME280;17980;51.744;7.190;2022-08-19T06:29:34;100871.85;;;24.22;87.24
27146;BME280;17980;51.744;7.190;2022-08-19T06:32:03;100867.70;;;24.55;86.13
27146;BME280;17980;51.744;7.190;2022-08-19T06:34:33;100868.13;;;24.50;86.17
27146;BME280;17980;51.744;7.190;2022-08-19T06:37:01;100872.34;;;24.40;86.41
27146;BME280;17980;51.744;7.190;2022-08-19T06:39:31;100865.13;;;24.42;86.58
27146;BME280;17980;51.744;7.190;2022-08-19T06:42:01;100875.38;;;24.51;86.39
27146;BME280;17980;51.744;7.190;2022-08-19T06:44:32;100874.40;;;24.24;87.23
27146;BME280;17980;51.744;7.190;2022-08-19T06:47:02;100878.97;;;24.28;88.33
27146;BME280;17980;51.744;7.190;2022-08-19T06:52:08;100871.88;;;24.88;86.50
27146;BME280;17980;51.744;7.190;2022-08-19T06:54:37;100864.95;;;24.79;85.74
27146;BME280;17980;51.744;7.190;2022-08-19T06:57:06;100862.67;;;24.88;85.98
27146;BME280;17980;51.744;7.190;2022-08-19T06:59:35;100866.86;;;24.88;86.16
27146;BME280;17980;51.744;7.190;2022-08-19T07:02:05;100860.07;;;25.22;84.71
27146;BME280;17980;51.744;7.190;2022-08-19T07:04:34;100872.97;;;24.87;86.21
27146;BME280;17980;51.744;7.190;2022-08-19T07:07:05;100869.62;;;25.23;85.00
27146;BME280;17980;51.744;7.190;2022-08-19T07:09:36;100875.72;;;25.73;82.47
27146;BME280;17980;51.744;7.190;2022-08-19T07:12:06;100868.78;;;25.61;83.17
27146;BME280;17980;51.744;7.190;2022-08-19T07:14:35;100862.56;;;25.85;82.34
27146;BME280;17980;51.744;7.190;2022-08-19T07:19:42;100866.02;;;26.33;80.11
27146;BME280;17980;51.744;7.190;2022-08-19T07:22:10;100865.17;;;26.81;79.00
27146;BME280;17980;51.744;7.190;2022-08-19T07:24:37;100861.36;;;28.77;71.56
27146;BME280;17980;51.744;7.190;2022-08-19T07:27:06;100871.48;;;29.71;67.53
27146;BME280;17980;51.744;7.190;2022-08-19T07:29:34;100869.11;;;31.92;60.10
27146;BME280;17980;51.744;7.190;2022-08-19T07:34:40;100874.81;;;35.91;51.38
27146;BME280;17980;51.744;7.190;2022-08-19T07:37:08;100875.06;;;36.65;49.82
27146;BME280;17980;51.744;7.190;2022-08-19T07:39:37;100883.59;;;38.26;46.94
27146;BME280;17980;51.744;7.190;2022-08-19T07:42:08;100895.92;;;38.76;45.44
27146;BME280;17980;51.744;7.190;2022-08-19T07:44:36;100898.42;;;38.51;45.54
27146;BME280;17980;51.744;7.190;2022-08-19T07:47:05;100903.41;;;38.11;46.02
27146;BME280;17980;51.744;7.190;2022-08-19T07:52:10;100909.44;;;38.09;46.30
27146;BME280;17980;51.744;7.190;2022-08-19T07:54:39;100920.67;;;37.97;46.08
27146;BME280;17980;51.744;7.190;2022-08-19T07:57:07;100921.00;;;37.95;46.32
27146;BME280;17980;51.744;7.190;2022-08-19T07:59:35;100924.84;;;38.28;45.58
27146;BME280;17980;51.744;7.190;2022-08-19T08:02:03;100923.73;;;38.53;45.44
27146;BME280;17980;51.744;7.190;2022-08-19T08:04:31;100917.16;;;36.63;47.88
27146;BME280;17980;51.744;7.190;2022-08-19T08:07:17;100913.78;;;34.82;51.41
27146;BME280;17980;51.744;7.190;2022-08-19T08:10:04;100922.28;;;32.67;56.11
27146;BME280;17980;51.744;7.190;2022-08-19T08:12:35;100919.24;;;31.43;59.50
27146;BME280;17980;51.744;7.190;2022-08-19T08:15:09;100928.59;;;31.13;60.47
27146;BME280;17980;51.744;7.190;2022-08-19T08:17:36;100926.55;;;31.44;60.29
27146;BME280;17980;51.744;7.190;2022-08-19T08:20:07;100925.28;;;32.47;57.85
27146;BME280;17980;51.744;7.190;2022-08-19T08:22:34;100929.98;;;31.33;60.31
27146;BME280;17980;51.744;7.190;2022-08-19T08:28:12;100928.44;;;32.80;57.64
27146;BME280;17980;51.744;7.190;2022-08-19T08:33:19;100929.66;;;35.14;51.96
27146;BME280;17980;51.744;7.190;2022-08-19T08:35:46;100928.59;;;35.71;50.58
27146;BME280;17980;51.744;7.190;2022-08-19T08:38:14;100935.21;;;35.94;50.32
27146;BME280;17980;51.744;7.190;2022-08-19T08:43:30;100934.64;;;37.35;47.10
27146;BME280;17980;51.744;7.190;2022-08-19T08:46:03;100945.99;;;37.04;48.27
27146;BME280;17980;51.744;7.190;2022-08-19T08:48:39;100946.80;;;38.80;45.61
27146;BME280;17980;51.744;7.190;2022-08-19T08:51:12;100951.79;;;39.27;43.88
27146;BME280;17980;51.744;7.190;2022-08-19T08:53:39;100948.76;;;37.18;46.07
27146;BME280;17980;51.744;7.190;2022-08-19T08:56:09;100943.41;;;37.28;45.05
27146;BME280;17980;51.744;7.190;2022-08-19T08:58:46;100942.20;;;35.43;48.09
27146;BME280;17980;51.744;7.190;2022-08-19T09:01:14;100952.31;;;33.83;50.47
27146;BME280;17980;51.744;7.190;2022-08-19T09:03:43;100955.00;;;34.56;49.94
27146;BME280;17980;51.744;7.190;2022-08-19T09:06:14;100950.73;;;32.84;52.53
27146;BME280;17980;51.744;7.190;2022-08-19T09:08:49;100952.86;;;34.66;49.65
27146;BME280;17980;51.744;7.190;2022-08-19T09:11:23;100942.86;;;35.21;48.33
27146;BME280;17980;51.744;7.190;2022-08-19T09:16:30;100939.72;;;36.48;46.62
27146;BME280;17980;51.744;7.190;2022-08-19T09:19:01;100939.33;;;36.27;46.42
27146;BME280;17980;51.744;7.190;2022-08-19T09:21:28;100945.73;;;33.88;50.37
27146;BME280;17980;51.744;7.190;2022-08-19T09:23:56;100939.91;;;32.93;52.74
27146;BME280;17980;51.744;7.190;2022-08-19T09:26:25;100936.03;;;33.16;52.15
27146;BME280;17980;51.744;7.190;2022-08-19T09:28:53;100937.80;;;33.90;50.83
27146;BME280;17980;51.744;7.190;2022-08-19T09:31:23;100942.30;;;34.12;50.84
27146;BME280;17980;51.744;7.190;2022-08-19T09:33:52;100936.83;;;36.11;47.34
27146;BME280;17980;51.744;7.190;2022-08-19T09:39:03;100945.61;;;39.40;42.45
27146;BME280;17980;51.744;7.190;2022-08-19T09:41:31;100943.91;;;40.37;40.90
27146;BME280;17980;51.744;7.190;2022-08-19T09:44:00;100950.89;;;39.44;41.31
27146;BME280;17980;51.744;7.190;2022-08-19T09:46:29;100936.11;;;36.06;45.93
27146;BME280;17980;51.744;7.190;2022-08-19T09:48:59;100939.30;;;34.44;48.88
27146;BME280;17980;51.744;7.190;2022-08-19T09:51:27;100940.20;;;33.75;49.85
27146;BME280;17980;51.744;7.190;2022-08-19T09:56:35;100943.86;;;34.78;49.02
27146;BME280;17980;51.744;7.190;2022-08-19T09:59:03;100933.95;;;34.78;48.87
27146;BME280;17980;51.744;7.190;2022-08-19T10:01:31;100932.42;;;34.31;49.29
27146;BME280;17980;51.744;7.190;2022-08-19T10:04:00;100935.37;;;32.58;52.04
27146;BME280;17980;51.744;7.190;2022-08-19T10:06:29;100934.20;;;31.28;54.80
27146;BME280;17980;51.744;7.190;2022-08-19T10:08:59;100927.41;;;31.42;55.14
27146;BME280;17980;51.744;7.190;2022-08-19T10:11:27;100936.77;;;31.01;56.44
27146;BME280;17980;51.744;7.190;2022-08-19T10:13:55;100934.35;;;31.83;55.34
27146;BME280;17980;51.744;7.190;2022-08-19T10:16:23;100933.06;;;32.20;54.51
27146;BME280;17980;51.744;7.190;2022-08-19T10:18:52;100938.17;;;31.17;56.62
27146;BME280;17980;51.744;7.190;2022-08-19T10:21:22;100937.76;;;30.13;59.47
27146;BME280;17980;51.744;7.190;2022-08-19T10:23:51;100935.40;;;29.39;61.42
27146;BME280;17980;51.744;7.190;2022-08-19T10:28:57;100931.28;;;30.10;59.83
27146;BME280;17980;51.744;7.190;2022-08-19T10:31:27;100928.62;;;31.07;57.45
27146;BME280;17980;51.744;7.190;2022-08-19T10:33:57;100924.84;;;31.53;55.91
27146;BME280;17980;51.744;7.190;2022-08-19T10:36:27;100915.25;;;31.62;54.60
27146;BME280;17980;51.744;7.190;2022-08-19T10:38:57;100938.74;;;31.11;55.19
27146;BME280;17980;51.744;7.190;2022-08-19T10:44:07;100920.89;;;31.62;55.12
27146;BME280;17980;51.744;7.190;2022-08-19T10:49:16;100919.30;;;31.10;54.56
27146;BME280;17980;51.744;7.190;2022-08-19T10:51:44;100913.38;;;30.70;55.21
27146;BME280;17980;51.744;7.190;2022-08-19T10:54:31;100916.45;;;30.61;54.78
27146;BME280;17980;51.744;7.190;2022-08-19T10:59:56;100930.98;;;30.09;57.25
27146;BME280;17980;51.744;7.190;2022-08-19T11:05:03;100913.66;;;31.15;55.59
27146;BME280;17980;51.744;7.190;2022-08-19T11:07:30;100911.69;;;31.13;56.03
27146;BME280;17980;51.744;7.190;2022-08-19T11:09:58;100927.20;;;31.02;56.18
27146;BME280;17980;51.744;7.190;2022-08-19T11:12:25;100928.20;;;30.19;57.14
27146;BME280;17980;51.744;7.190;2022-08-19T11:17:31;100919.43;;;29.47;58.35
27146;BME280;17980;51.744;7.190;2022-08-19T11:19:58;100921.55;;;29.75;58.00
27146;BME280;17980;51.744;7.190;2022-08-19T11:25:07;100918.46;;;30.68;56.35
27146;BME280;17980;51.744;7.190;2022-08-19T11:30:15;100918.95;;;30.42;55.88
27146;BME280;17980;51.744;7.190;2022-08-19T11:35:19;100915.92;;;29.80;55.88
27146;BME280;17980;51.744;7.190;2022-08-19T11:37:47;100911.91;;;30.42;55.20
27146;BME280;17980;51.744;7.190;2022-08-19T11:40:14;100911.36;;;31.35;53.21
27146;BME280;17980;51.744;7.190;2022-08-19T11:45:18;100907.95;;;32.19;50.37
27146;BME280;17980;51.744;7.190;2022-08-19T11:47:46;100909.38;;;32.14;51.10
27146;BME280;17980;51.744;7.190;2022-08-19T11:50:14;100908.89;;;31.96;50.20
27146;BME280;17980;51.744;7.190;2022-08-19T11:52:42;100907.64;;;32.23;50.43
27146;BME280;17980;51.744;7.190;2022-08-19T12:03:57;100905.53;;;31.94;50.52
27146;BME280;17980;51.744;7.190;2022-08-19T12:09:04;100900.14;;;31.95;51.53
27146;BME280;17980;51.744;7.190;2022-08-19T12:14:11;100889.41;;;30.98;52.49
27146;BME280;17980;51.744;7.190;2022-08-19T12:16:41;100896.50;;;31.92;52.64
27146;BME280;17980;51.744;7.190;2022-08-19T12:19:08;100889.35;;;31.37;52.63
27146;BME280;17980;51.744;7.190;2022-08-19T12:24:13;100890.44;;;32.19;50.61
27146;BME280;17980;51.744;7.190;2022-08-19T12:26:40;100886.06;;;31.09;53.83
27146;BME280;17980;51.744;7.190;2022-08-19T12:29:08;100881.14;;;31.46;52.51
27146;BME280;17980;51.744;7.190;2022-08-19T12:31:36;100875.91;;;31.94;51.97
27146;BME280;17980;51.744;7.190;2022-08-19T12:34:03;100876.73;;;31.97;50.86
27146;BME280;17980;51.744;7.190;2022-08-19T12:36:30;100882.45;;;32.32;50.49
27146;BME280;17980;51.744;7.190;2022-08-19T12:41:36;100871.45;;;32.30;49.38
27146;BME280;17980;51.744;7.190;2022-08-19T12:46:41;100878.35;;;32.08;49.53
27146;BME280;17980;51.744;7.190;2022-08-19T12:49:08;100871.10;;;31.19;51.08
27146;BME280;17980;51.744;7.190;2022-08-19T12:54:13;100875.36;;;31.03;52.04
27146;BME280;17980;51.744;7.190;2022-08-19T12:56:42;100873.69;;;31.86;50.69
27146;BME280;17980;51.744;7.190;2022-08-19T12:59:13;100873.74;;;32.63;48.90
27146;BME280;17980;51.744;7.190;2022-08-19T13:01:42;100874.40;;;32.49;49.04
27146;BME280;17980;51.744;7.190;2022-08-19T13:04:10;100876.50;;;31.86;48.52
27146;BME280;17980;51.744;7.190;2022-08-19T13:06:38;100870.30;;;31.81;48.05
27146;BME280;17980;51.744;7.190;2022-08-19T13:09:06;100866.99;;;32.24;47.13
27146;BME280;17980;51.744;7.190;2022-08-19T13:14:10;100871.11;;;32.76;46.71
27146;BME280;17980;51.744;7.190;2022-08-19T13:16:37;100852.06;;;33.14;46.75
27146;BME280;17980;51.744;7.190;2022-08-19T13:19:05;100854.27;;;33.20;45.96
27146;BME280;17980;51.744;7.190;2022-08-19T13:21:34;100856.16;;;33.00;45.55
27146;BME280;17980;51.744;7.190;2022-08-19T13:24:01;100852.92;;;32.88;45.32
27146;BME280;17980;51.744;7.190;2022-08-19T13:29:06;100847.65;;;32.41;45.93
27146;BME280;17980;51.744;7.190;2022-08-19T13:31:51;100839.36;;;32.53;45.89
27146;BME280;17980;51.744;7.190;2022-08-19T13:34:37;100844.08;;;31.81;46.88
27146;BME280;17980;51.744;7.190;2022-08-19T13:39:41;100835.33;;;30.88;49.46
27146;BME280;17980;51.744;7.190;2022-08-19T13:44:45;100835.93;;;30.52;49.77
27146;BME280;17980;51.744;7.190;2022-08-19T13:47:14;100826.05;;;30.88;49.16
27146;BME280;17980;51.744;7.190;2022-08-19T13:49:41;100826.06;;;30.70;49.12
27146;BME280;17980;51.744;7.190;2022-08-19T13:54:46;100829.14;;;30.37;48.91
27146;BME280;17980;51.744;7.190;2022-08-19T13:57:17;100821.49;;;31.15;48.75
27146;BME280;17980;51.744;7.190;2022-08-19T13:59:45;100823.92;;;31.42;47.97
27146;BME280;17980;51.744;7.190;2022-08-19T14:04:49;100818.42;;;30.91;48.27
27146;BME280;17980;51.744;7.190;2022-08-19T14:07:17;100818.84;;;31.47;47.63
27146;BME280;17980;51.744;7.190;2022-08-19T14:09:44;100820.62;;;31.25;47.97
27146;BME280;17980;51.744;7.190;2022-08-19T14:12:11;100822.39;;;31.76;47.47
27146;BME280;17980;51.744;7.190;2022-08-19T14:14:39;100813.69;;;32.15;46.65
27146;BME280;17980;51.744;7.190;2022-08-19T14:17:07;100815.76;;;31.99;46.43
27146;BME280;17980;51.744;7.190;2022-08-19T14:19:35;100814.56;;;31.55;47.01
27146;BME280;17980;51.744;7.190;2022-08-19T14:22:03;100813.46;;;31.48;46.59
27146;BME280;17980;51.744;7.190;2022-08-19T14:24:32;100815.31;;;31.11;47.16
27146;BME280;17980;51.744;7.190;2022-08-19T14:26:59;100811.38;;;31.06;47.46
27146;BME280;17980;51.744;7.190;2022-08-19T14:29:27;100808.88;;;30.71;48.37
27146;BME280;17980;51.744;7.190;2022-08-19T14:31:55;100805.70;;;31.12;47.87
27146;BME280;17980;51.744;7.190;2022-08-19T14:34:25;100809.63;;;31.26;47.96
27146;BME280;17980;51.744;7.190;2022-08-19T14:36:53;100809.23;;;31.46;47.55
27146;BME280;17980;51.744;7.190;2022-08-19T14:39:20;100810.00;;;31.72;47.11
27146;BME280;17980;51.744;7.190;2022-08-19T14:41:48;100812.00;;;31.66;46.75
27146;BME280;17980;51.744;7.190;2022-08-19T14:46:55;100816.95;;;31.90;46.61
27146;BME280;17980;51.744;7.190;2022-08-19T14:49:22;100816.73;;;31.79;46.92
27146;BME280;17980;51.744;7.190;2022-08-19T14:51:55;100821.88;;;31.64;48.24
27146;BME280;17980;51.744;7.190;2022-08-19T14:54:23;100824.70;;;31.61;48.86
27146;BME280;17980;51.744;7.190;2022-08-19T14:56:50;100824.29;;;32.31;47.57
27146;BME280;17980;51.744;7.190;2022-08-19T14:59:18;100819.02;;;32.53;47.94
27146;BME280;17980;51.744;7.190;2022-08-19T15:01:45;100820.74;;;32.49;47.22
27146;BME280;17980;51.744;7.190;2022-08-19T15:04:14;100829.41;;;32.29;47.36
27146;BME280;17980;51.744;7.190;2022-08-19T15:06:42;100827.13;;;31.86;48.05
27146;BME280;17980;51.744;7.190;2022-08-19T15:09:09;100829.78;;;31.56;48.54
27146;BME280;17980;51.744;7.190;2022-08-19T15:14:14;100831.78;;;32.08;48.37
27146;BME280;17980;51.744;7.190;2022-08-19T15:16:41;100833.78;;;31.48;48.54
27146;BME280;17980;51.744;7.190;2022-08-19T15:19:11;100836.28;;;31.62;48.33
27146;BME280;17980;51.744;7.190;2022-08-19T15:21:38;100839.95;;;32.52;47.35
27146;BME280;17980;51.744;7.190;2022-08-19T15:24:06;100843.56;;;32.58;46.77
27146;BME280;17980;51.744;7.190;2022-08-19T15:26:34;100848.02;;;32.64;46.17
27146;BME280;17980;51.744;7.190;2022-08-19T15:29:02;100848.64;;;32.58;45.93